Time;durP1;ratioP1;P1;durP2;ratioP2;P2;SDS_P1;SDS_P2;PMS_P1;PMS_P2;Temp;Humidity;BMP_temperature;BMP_pressure;BME280_temperature;BME280_humidity;BME280_pressure;Samples;Min_cycle;Max_cycle;Signal;HPM_P1;HPM_P2
2023/10/20 00:00:05;;;;;;;8.65;5.00;;;;;;;;;;5054219;28;20085;-83
2023/10/20 00:02:31;;;;;;;11.02;6.72;;;;;;;;;;5053866;28;20024;-84
2023/10/20 00:04:59;;;;;;;11.30;5.72;;;;;;;;;;5053631;28;20032;-84
2023/10/20 00:07:25;;;;;;;18.65;5.70;;;;;;;;;;5052562;28;20020;-84
2023/10/20 00:09:50;;;;;;;10.38;5.18;;;;;;;;;;5052736;28;20017;-83
2023/10/20 00:12:16;;;;;;;8.55;4.32;;;;;;;;;;5053133;28;20020;-84
2023/10/20 00:14:41;;;;;;;9.70;4.38;;;;;;;;;;5053767;28;20161;-84
2023/10/20 00:17:06;;;;;;;7.95;3.92;;;;;;;;;;5052916;28;20027;-84
2023/10/20 00:19:32;;;;;;;5.22;3.38;;;;;;;;;;5052248;28;20119;-84
2023/10/20 00:21:58;;;;;;;6.20;3.90;;;;;;;;;;5063013;28;20016;-84
2023/10/20 00:24:23;;;;;;;8.60;3.80;;;;;;;;;;5058292;28;20031;-84
2023/10/20 00:26:49;;;;;;;7.82;4.10;;;;;;;;;;5076388;28;20016;-83
2023/10/20 00:29:16;;;;;;;8.07;3.47;;;;;;;;;;5060643;28;20016;-83
2023/10/20 00:32:01;;;;;;;6.32;3.63;;;;;;;;;;5067243;28;20016;-84
2023/10/20 00:34:28;;;;;;;5.20;2.83;;;;;;;;;;5064546;28;20103;-84
2023/10/20 00:37:01;;;;;;;3.92;2.63;;;;;;;;;;5061791;28;20420;-84
2023/10/20 00:39:26;;;;;;;6.80;3.22;;;;;;;;;;5062587;28;20093;-84
2023/10/20 00:41:52;;;;;;;6.30;3.22;;;;;;;;;;5058808;28;20020;-84
2023/10/20 00:44:17;;;;;;;5.97;3.50;;;;;;;;;;5059258;28;20024;-84
2023/10/20 00:46:43;;;;;;;6.05;3.38;;;;;;;;;;5091218;28;20115;-84
2023/10/20 00:49:09;;;;;;;11.52;4.03;;;;;;;;;;5061878;28;20054;-84
2023/10/20 00:51:34;;;;;;;11.68;4.78;;;;;;;;;;5057439;28;20472;-83
2023/10/20 00:54:02;;;;;;;7.40;3.72;;;;;;;;;;5051588;28;20020;-84
2023/10/20 00:56:32;;;;;;;9.00;3.70;;;;;;;;;;5057435;28;20012;-83
2023/10/20 00:58:57;;;;;;;11.18;3.80;;;;;;;;;;5057040;28;20103;-83
2023/10/20 01:01:23;;;;;;;10.20;4.50;;;;;;;;;;5057301;28;20051;-84
2023/10/20 01:03:48;;;;;;;6.32;4.15;;;;;;;;;;5078973;28;20032;-84
2023/10/20 01:06:13;;;;;;;9.90;5.05;;;;;;;;;;5057419;28;20027;-83
2023/10/20 01:08:42;;;;;;;7.25;4.05;;;;;;;;;;5056365;28;20024;-84
2023/10/20 01:11:08;;;;;;;13.18;4.05;;;;;;;;;;5056344;28;20020;-83
2023/10/20 01:13:33;;;;;;;5.50;3.65;;;;;;;;;;5074141;28;20083;-84
2023/10/20 01:15:58;;;;;;;10.40;5.32;;;;;;;;;;5056388;28;20044;-84
2023/10/20 01:18:24;;;;;;;9.45;4.00;;;;;;;;;;5055932;28;20021;-84
2023/10/20 01:20:49;;;;;;;7.53;4.68;;;;;;;;;;5056458;28;20130;-83
2023/10/20 01:23:15;;;;;;;10.73;4.70;;;;;;;;;;5056027;28;20404;-84
2023/10/20 01:25:41;;;;;;;8.48;4.75;;;;;;;;;;5058369;28;20034;-84
2023/10/20 01:28:09;;;;;;;10.05;5.43;;;;;;;;;;5065889;28;20030;-91
2023/10/20 01:30:34;;;;;;;9.18;5.43;;;;;;;;;;5058561;28;20346;-89
2023/10/20 01:33:00;;;;;;;10.18;5.63;;;;;;;;;;5056470;28;20116;-91
2023/10/20 01:35:26;;;;;;;12.68;6.38;;;;;;;;;;5068256;28;20013;-89
2023/10/20 01:37:51;;;;;;;9.27;5.60;;;;;;;;;;5064027;28;20025;-89
2023/10/20 01:40:19;;;;;;;13.57;6.40;;;;;;;;;;5064138;28;20021;-84
2023/10/20 01:42:44;;;;;;;11.77;5.30;;;;;;;;;;5059809;28;20601;-84
2023/10/20 01:45:13;;;;;;;8.18;5.07;;;;;;;;;;5080570;28;20077;-83
2023/10/20 01:47:40;;;;;;;10.50;5.85;;;;;;;;;;5080179;28;20024;-84
2023/10/20 01:50:06;;;;;;;12.38;6.82;;;;;;;;;;5058930;28;20583;-85
2023/10/20 01:52:32;;;;;;;9.93;5.63;;;;;;;;;;5056677;28;20039;-84
2023/10/20 01:54:58;;;;;;;10.18;5.57;;;;;;;;;;5056861;28;20016;-83
2023/10/20 01:57:26;;;;;;;12.98;6.22;;;;;;;;;;5055012;28;20096;-83
2023/10/20 01:59:52;;;;;;;12.45;6.72;;;;;;;;;;5055754;28;20024;-83
2023/10/20 02:02:18;;;;;;;13.15;6.30;;;;;;;;;;5073753;28;20020;-84
2023/10/20 02:04:43;;;;;;;9.48;6.30;;;;;;;;;;5055851;28;20130;-84
2023/10/20 02:07:12;;;;;;;12.07;6.00;;;;;;;;;;5055544;28;20036;-84
2023/10/20 02:09:40;;;;;;;13.13;5.90;;;;;;;;;;5055650;28;20036;-83
2023/10/20 02:12:06;;;;;;;9.57;5.85;;;;;;;;;;5055824;28;20115;-83
2023/10/20 02:14:33;;;;;;;13.68;6.22;;;;;;;;;;5055821;28;20020;-83
2023/10/20 02:16:58;;;;;;;11.00;6.65;;;;;;;;;;5055619;28;20024;-83
2023/10/20 02:19:23;;;;;;;9.63;5.68;;;;;;;;;;5072612;28;20098;-84
2023/10/20 02:21:49;;;;;;;13.70;6.00;;;;;;;;;;5055301;28;20043;-83
2023/10/20 02:24:14;;;;;;;11.20;5.47;;;;;;;;;;5055667;28;20459;-83
2023/10/20 02:26:40;;;;;;;12.07;6.20;;;;;;;;;;5073304;28;20131;-84
2023/10/20 02:29:06;;;;;;;11.85;5.10;;;;;;;;;;5054776;28;20116;-84
2023/10/20 02:31:31;;;;;;;9.07;5.60;;;;;;;;;;5059749;28;20082;-90
2023/10/20 02:33:57;;;;;;;16.05;6.70;;;;;;;;;;5062802;28;20021;-89
2023/10/20 02:36:24;;;;;;;9.15;5.55;;;;;;;;;;5075215;28;20042;-89
2023/10/20 02:38:52;;;;;;;9.48;5.25;;;;;;;;;;5058756;28;20017;-89
2023/10/20 02:41:17;;;;;;;10.07;4.95;;;;;;;;;;5059360;28;20086;-87
2023/10/20 02:43:43;;;;;;;10.20;4.72;;;;;;;;;;5057062;28;20032;-88
2023/10/20 02:46:09;;;;;;;10.30;5.47;;;;;;;;;;5056408;28;20020;-88
2023/10/20 02:48:35;;;;;;;8.38;4.45;;;;;;;;;;5056852;28;20024;-89
2023/10/20 02:51:10;;;;;;;11.00;4.60;;;;;;;;;;5082686;28;20017;-89
2023/10/20 02:53:39;;;;;;;12.40;4.93;;;;;;;;;;5066831;28;20024;-89
2023/10/20 02:56:14;;;;;;;7.07;4.28;;;;;;;;;;5057824;28;20028;-89
2023/10/20 02:58:41;;;;;;;9.52;4.93;;;;;;;;;;5061275;28;20456;-90
2023/10/20 03:01:09;;;;;;;8.77;4.65;;;;;;;;;;5057093;28;20407;-91
2023/10/20 03:03:41;;;;;;;6.88;4.20;;;;;;;;;;5055229;28;20626;-91
2023/10/20 03:06:08;;;;;;;6.75;4.03;;;;;;;;;;5056276;28;20024;-91
2023/10/20 03:08:36;;;;;;;6.60;4.00;;;;;;;;;;5054822;28;20032;-91
2023/10/20 03:11:02;;;;;;;6.82;4.25;;;;;;;;;;5055664;28;20016;-90
2023/10/20 03:13:27;;;;;;;7.85;4.10;;;;;;;;;;5073244;28;20023;-91
2023/10/20 03:15:53;;;;;;;9.05;4.55;;;;;;;;;;5054753;28;20024;-91
2023/10/20 03:18:19;;;;;;;10.18;4.45;;;;;;;;;;5072067;28;20772;-91
2023/10/20 03:20:45;;;;;;;10.80;5.65;;;;;;;;;;5054771;28;20024;-90
2023/10/20 03:23:10;;;;;;;11.40;6.38;;;;;;;;;;5054400;28;20475;-90
2023/10/20 03:25:36;;;;;;;9.93;5.95;;;;;;;;;;5053515;28;20060;-91
2023/10/20 03:28:06;;;;;;;8.75;5.72;;;;;;;;;;5054023;28;20021;-90
2023/10/20 03:30:38;;;;;;;9.68;6.05;;;;;;;;;;5072083;28;20078;-90
2023/10/20 03:33:05;;;;;;;18.33;4.70;;;;;;;;;;5054435;28;20116;-89
2023/10/20 03:35:31;;;;;;;8.68;4.88;;;;;;;;;;5053243;28;20021;-90
2023/10/20 03:37:58;;;;;;;8.68;4.35;;;;;;;;;;5076029;28;20090;-90
2023/10/20 03:40:31;;;;;;;8.20;4.68;;;;;;;;;;5055040;28;20417;-90
2023/10/20 03:42:59;;;;;;;6.43;4.10;;;;;;;;;;5055205;28;20363;-91
2023/10/20 03:45:25;;;;;;;7.13;3.78;;;;;;;;;;5055621;28;20055;-90
2023/10/20 03:47:51;;;;;;;7.70;3.80;;;;;;;;;;5055883;28;20016;-90
2023/10/20 03:50:17;;;;;;;7.47;2.95;;;;;;;;;;5077216;28;20085;-90
2023/10/20 03:52:46;;;;;;;6.45;4.07;;;;;;;;;;5060549;28;20089;-90
2023/10/20 03:55:15;;;;;;;6.18;3.70;;;;;;;;;;5061397;28;20017;-90
2023/10/20 03:57:44;;;;;;;6.35;3.88;;;;;;;;;;5060426;28;20024;-90
2023/10/20 04:03:04;;;;;;;6.78;3.47;;;;;;;;;;5063629;28;20038;-90
2023/10/20 04:05:30;;;;;;;8.75;3.65;;;;;;;;;;5078835;28;20472;-85
2023/10/20 04:08:00;;;;;;;6.10;3.25;;;;;;;;;;5071770;28;20023;-84
2023/10/20 04:10:26;;;;;;;6.10;3.05;;;;;;;;;;5071646;28;20438;-83
2023/10/20 04:12:53;;;;;;;4.78;3.15;;;;;;;;;;5052294;28;20059;-84
2023/10/20 04:15:19;;;;;;;6.07;4.10;;;;;;;;;;5053399;28;20020;-84
2023/10/20 04:17:48;;;;;;;8.10;3.40;;;;;;;;;;5053305;28;20032;-83
2023/10/20 04:20:18;;;;;;;7.28;3.78;;;;;;;;;;5072069;28;20078;-83
2023/10/20 04:22:43;;;;;;;9.00;3.17;;;;;;;;;;5053647;28;20040;-83
2023/10/20 04:25:12;;;;;;;5.68;3.78;;;;;;;;;;5054274;28;20031;-83
2023/10/20 04:27:46;;;;;;;5.60;3.28;;;;;;;;;;5053597;28;20023;-84
2023/10/20 04:58:13;;;;;;;5.97;4.22;;;;;;;;;;5081459;28;20617;-84
2023/10/20 05:00:42;;;;;;;7.82;4.53;;;;;;;;;;5066701;28;20036;-90
2023/10/20 05:03:29;;;;;;;7.45;4.65;;;;;;;;;;5065825;28;20478;-88
2023/10/20 05:06:02;;;;;;;12.02;4.43;;;;;;;;;;5055889;28;20111;-88
2023/10/20 05:08:28;;;;;;;8.80;4.50;;;;;;;;;;5076714;28;20028;-88
2023/10/20 05:10:54;;;;;;;9.25;4.90;;;;;;;;;;5066592;28;20036;-86
2023/10/20 05:13:19;;;;;;;10.10;3.85;;;;;;;;;;5056421;28;20012;-86
2023/10/20 05:15:46;;;;;;;7.03;3.80;;;;;;;;;;5057789;28;20027;-86
2023/10/20 05:18:11;;;;;;;5.90;4.07;;;;;;;;;;5056295;28;20052;-86
2023/10/20 05:20:37;;;;;;;6.13;3.47;;;;;;;;;;5056916;28;20121;-87
2023/10/20 05:23:02;;;;;;;15.65;4.35;;;;;;;;;;5056601;28;20024;-86
2023/10/20 05:25:28;;;;;;;7.78;3.95;;;;;;;;;;5056067;28;20471;-86
2023/10/20 05:27:54;;;;;;;11.20;4.47;;;;;;;;;;5055675;28;20036;-86
2023/10/20 05:30:19;;;;;;;6.70;3.63;;;;;;;;;;5056167;28;20029;-85
2023/10/20 05:32:46;;;;;;;15.02;3.95;;;;;;;;;;5054029;28;20028;-86
2023/10/20 05:35:14;;;;;;;4.55;2.90;;;;;;;;;;5055489;28;20035;-86
2023/10/20 05:37:42;;;;;;;11.82;3.40;;;;;;;;;;5054858;28;20039;-86
2023/10/20 05:40:08;;;;;;;7.47;4.13;;;;;;;;;;5056296;28;20025;-85
2023/10/20 05:42:38;;;;;;;7.78;4.30;;;;;;;;;;5056566;28;20035;-86
2023/10/20 05:45:20;;;;;;;12.30;5.30;;;;;;;;;;5055190;28;20388;-86
2023/10/20 05:47:46;;;;;;;8.80;5.10;;;;;;;;;;5056438;28;20035;-86
2023/10/20 05:50:17;;;;;;;10.40;5.80;;;;;;;;;;5060029;28;20119;-86
2023/10/20 05:52:43;;;;;;;9.38;5.68;;;;;;;;;;5056652;28;20044;-86
2023/10/20 05:55:08;;;;;;;13.18;4.90;;;;;;;;;;5057313;28;20021;-86
2023/10/20 05:57:39;;;;;;;12.52;5.32;;;;;;;;;;5067681;28;20024;-87
2023/10/20 06:00:06;;;;;;;9.90;4.47;;;;;;;;;;5090180;28;20024;-89
2023/10/20 06:02:33;;;;;;;10.23;5.22;;;;;;;;;;5083146;28;20020;-87
2023/10/20 06:04:59;;;;;;;10.38;4.68;;;;;;;;;;5062651;28;20103;-90
2023/10/20 06:07:27;;;;;;;8.90;3.95;;;;;;;;;;5064859;28;20093;-88
2023/10/20 06:09:56;;;;;;;14.43;4.45;;;;;;;;;;5063528;28;20055;-90
2023/10/20 06:12:21;;;;;;;7.85;3.80;;;;;;;;;;5077437;28;20012;-90
2023/10/20 06:14:47;;;;;;;6.97;3.92;;;;;;;;;;5078678;28;20021;-87
2023/10/20 06:17:15;;;;;;;6.80;3.88;;;;;;;;;;5062940;28;20051;-90
2023/10/20 06:19:42;;;;;;;7.90;3.90;;;;;;;;;;5054618;28;20434;-90
2023/10/20 06:22:15;;;;;;;9.10;3.42;;;;;;;;;;5055826;28;20029;-90
2023/10/20 06:24:40;;;;;;;9.50;3.85;;;;;;;;;;5056197;28;20369;-91
2023/10/20 06:27:06;;;;;;;9.57;4.80;;;;;;;;;;5054401;28;20067;-90
2023/10/20 06:32:45;;;;;;;11.98;5.05;;;;;;;;;;5072968;28;20021;-90
2023/10/20 06:34:47;;;;;;;7.93;4.47;;;;;;;;;;5062080;28;20067;-90
2023/10/20 06:37:19;;;;;;;11.65;5.53;;;;;;;;;;5048812;28;20017;-90
2023/10/20 06:39:44;;;;;;;11.52;4.78;;;;;;;;;;5055427;28;20028;-90
2023/10/20 06:42:09;;;;;;;8.95;5.05;;;;;;;;;;5072662;28;20027;-90
2023/10/20 06:44:35;;;;;;;11.45;4.45;;;;;;;;;;5072930;28;20043;-90
2023/10/20 06:47:00;;;;;;;9.00;4.53;;;;;;;;;;5055828;28;20460;-91
2023/10/20 06:49:26;;;;;;;11.30;4.45;;;;;;;;;;5055349;28;20463;-90
2023/10/20 06:51:52;;;;;;;6.63;3.45;;;;;;;;;;5054233;28;20436;-91
2023/10/20 06:54:27;;;;;;;7.13;3.53;;;;;;;;;;5049232;28;20030;-85
2023/10/20 06:56:56;;;;;;;6.43;3.28;;;;;;;;;;5086635;28;20510;-83
2023/10/20 06:59:21;;;;;;;6.43;3.60;;;;;;;;;;5054693;28;20015;-85
2023/10/20 07:01:47;;;;;;;6.45;3.83;;;;;;;;;;5059512;28;20020;-84
2023/10/20 07:04:14;;;;;;;7.30;3.83;;;;;;;;;;5067970;28;20041;-90
2023/10/20 07:06:43;;;;;;;6.30;3.70;;;;;;;;;;5082874;28;20016;-82
2023/10/20 07:09:11;;;;;;;5.80;3.45;;;;;;;;;;5046636;28;20024;-82
2023/10/20 07:11:43;;;;;;;6.13;3.13;;;;;;;;;;5066852;28;20024;-89
2023/10/20 07:14:12;;;;;;;7.05;3.95;;;;;;;;;;5063746;28;20013;-82
2023/10/20 07:16:37;;;;;;;6.57;3.05;;;;;;;;;;5066542;28;20060;-86
2023/10/20 07:19:03;;;;;;;8.23;3.47;;;;;;;;;;5054721;28;20039;-86
2023/10/20 07:21:30;;;;;;;7.80;3.20;;;;;;;;;;5061351;28;20024;-86
2023/10/20 07:23:56;;;;;;;6.07;3.35;;;;;;;;;;5058137;28;20060;-86
2023/10/20 07:26:22;;;;;;;8.85;3.90;;;;;;;;;;5046258;28;20052;-86
2023/10/20 07:28:48;;;;;;;9.20;4.22;;;;;;;;;;5082141;28;20025;-86
2023/10/20 07:31:14;;;;;;;6.28;3.25;;;;;;;;;;5053668;28;20036;-86
2023/10/20 07:33:40;;;;;;;7.85;3.45;;;;;;;;;;5054044;28;20436;-86
2023/10/20 07:36:05;;;;;;;5.10;2.70;;;;;;;;;;5087222;28;20048;-85
2023/10/20 07:38:31;;;;;;;4.30;2.72;;;;;;;;;;5054227;28;20043;-86
2023/10/20 07:40:56;;;;;;;3.78;2.67;;;;;;;;;;5054289;28;20028;-86
2023/10/20 07:43:21;;;;;;;5.45;3.20;;;;;;;;;;5053863;28;20208;-86
2023/10/20 07:45:49;;;;;;;6.15;2.47;;;;;;;;;;5051526;28;20040;-86
2023/10/20 07:48:20;;;;;;;3.90;2.40;;;;;;;;;;5042838;28;20021;-86
2023/10/20 07:50:46;;;;;;;6.38;3.05;;;;;;;;;;5053622;28;20377;-86
2023/10/20 07:53:12;;;;;;;3.78;2.63;;;;;;;;;;5071845;28;20012;-86
2023/10/20 07:55:37;;;;;;;4.45;2.28;;;;;;;;;;5084001;28;20051;-86
2023/10/20 07:58:03;;;;;;;4.05;2.80;;;;;;;;;;5053852;28;20547;-86
2023/10/20 08:00:29;;;;;;;7.20;2.58;;;;;;;;;;5053137;28;20029;-86
2023/10/20 08:02:55;;;;;;;7.95;3.03;;;;;;;;;;5061561;28;20423;-82
2023/10/20 08:05:27;;;;;;;5.35;2.97;;;;;;;;;;5056665;28;20471;-83
2023/10/20 08:08:01;;;;;;;4.70;3.00;;;;;;;;;;5053956;28;20432;-82
2023/10/20 08:10:27;;;;;;;4.97;2.40;;;;;;;;;;5056835;28;20116;-82
2023/10/20 08:12:53;;;;;;;4.57;2.70;;;;;;;;;;5056114;28;20044;-82
2023/10/20 08:15:19;;;;;;;5.32;3.03;;;;;;;;;;5053427;28;20039;-82
2023/10/20 08:17:46;;;;;;;4.53;2.72;;;;;;;;;;5053053;28;20047;-82
2023/10/20 08:20:11;;;;;;;3.22;2.53;;;;;;;;;;5053397;28;20642;-83
2023/10/20 08:22:37;;;;;;;6.95;2.92;;;;;;;;;;5059758;28;20035;-82
2023/10/20 08:25:06;;;;;;;5.38;2.58;;;;;;;;;;5083605;28;20041;-84
2023/10/20 08:27:32;;;;;;;5.35;2.67;;;;;;;;;;5049894;28;20462;-85
2023/10/20 08:29:59;;;;;;;4.00;2.08;;;;;;;;;;5053849;28;20048;-85
2023/10/20 08:32:29;;;;;;;4.68;2.70;;;;;;;;;;5062867;28;20009;-90
2023/10/20 08:34:54;;;;;;;3.28;2.42;;;;;;;;;;5054282;28;20021;-90
2023/10/20 08:37:22;;;;;;;4.63;2.45;;;;;;;;;;5053901;28;20024;-90
2023/10/20 08:39:47;;;;;;;3.00;2.08;;;;;;;;;;5087713;28;20067;-90
2023/10/20 08:42:19;;;;;;;5.28;2.30;;;;;;;;;;5055388;28;20017;-89
2023/10/20 08:44:48;;;;;;;3.10;1.77;;;;;;;;;;5057312;28;20013;-89
2023/10/20 08:47:14;;;;;;;3.58;2.28;;;;;;;;;;5056060;28;20043;-90
2023/10/20 08:49:39;;;;;;;9.50;3.15;;;;;;;;;;5057852;28;20081;-90
2023/10/20 08:52:07;;;;;;;6.55;1.83;;;;;;;;;;5057583;28;20103;-90
2023/10/20 08:54:33;;;;;;;3.55;1.90;;;;;;;;;;5075404;28;20056;-88
2023/10/20 08:56:58;;;;;;;3.40;1.70;;;;;;;;;;5057522;28;20462;-89
2023/10/20 08:59:24;;;;;;;4.28;1.83;;;;;;;;;;5057237;28;20081;-90
2023/10/20 09:01:51;;;;;;;6.85;2.20;;;;;;;;;;5057114;28;20020;-89
2023/10/20 09:04:21;;;;;;;2.55;1.70;;;;;;;;;;5057124;28;20406;-89
2023/10/20 09:06:46;;;;;;;4.85;1.98;;;;;;;;;;5056746;28;20025;-89
2023/10/20 09:09:11;;;;;;;3.25;1.70;;;;;;;;;;5057077;28;20024;-89
2023/10/20 09:11:39;;;;;;;3.10;2.10;;;;;;;;;;5057454;28;20056;-89
2023/10/20 09:14:10;;;;;;;2.38;1.40;;;;;;;;;;5064275;28;20012;-81
2023/10/20 09:16:36;;;;;;;3.50;1.80;;;;;;;;;;5055438;28;20391;-81
2023/10/20 09:19:03;;;;;;;2.55;1.63;;;;;;;;;;5056905;28;20352;-82
2023/10/20 09:21:30;;;;;;;4.03;2.15;;;;;;;;;;5062166;28;20484;-81
2023/10/20 09:23:56;;;;;;;2.70;1.75;;;;;;;;;;5068325;28;20034;-85
2023/10/20 09:26:21;;;;;;;4.93;1.92;;;;;;;;;;5066067;28;20109;-85
2023/10/20 09:28:48;;;;;;;2.63;1.63;;;;;;;;;;5067920;28;20033;-82
2023/10/20 09:31:15;;;;;;;9.93;1.90;;;;;;;;;;5068246;28;20024;-88
2023/10/20 09:33:42;;;;;;;3.25;1.70;;;;;;;;;;5070326;28;20016;-88
2023/10/20 09:36:11;;;;;;;3.33;1.83;;;;;;;;;;5069683;28;20024;-87
2023/10/20 09:38:40;;;;;;;2.58;1.55;;;;;;;;;;5062903;28;20379;-85
2023/10/20 09:41:19;;;;;;;2.58;1.55;;;;;;;;;;5056938;28;20084;-85
2023/10/20 09:43:48;;;;;;;2.58;1.40;;;;;;;;;;5061729;28;20031;-85
2023/10/20 09:46:19;;;;;;;2.40;1.42;;;;;;;;;;5055897;28;20021;-84
2023/10/20 09:48:46;;;;;;;2.25;1.30;;;;;;;;;;5075885;28;20045;-85
2023/10/20 09:51:14;;;;;;;3.28;1.60;;;;;;;;;;5056037;28;20485;-85
2023/10/20 09:53:41;;;;;;;1.92;1.20;;;;;;;;;;5088973;28;20024;-85
2023/10/20 09:56:06;;;;;;;2.67;1.52;;;;;;;;;;5055808;28;20178;-85
2023/10/20 09:58:36;;;;;;;2.03;1.30;;;;;;;;;;5054425;28;20020;-85
2023/10/20 10:01:04;;;;;;;4.15;1.50;;;;;;;;;;5055542;28;20074;-85
2023/10/20 10:03:37;;;;;;;2.40;1.58;;;;;;;;;;5073158;28;20078;-85
2023/10/20 10:06:05;;;;;;;1.90;1.13;;;;;;;;;;5055966;28;20017;-85
2023/10/20 10:08:30;;;;;;;2.00;1.23;;;;;;;;;;5055436;28;20460;-85
2023/10/20 10:10:56;;;;;;;3.78;1.38;;;;;;;;;;5054260;28;20021;-85
2023/10/20 10:13:31;;;;;;;4.80;1.60;;;;;;;;;;5054540;28;20055;-84
2023/10/20 10:16:08;;;;;;;4.18;1.88;;;;;;;;;;5056862;28;20334;-85
2023/10/20 10:18:36;;;;;;;5.40;1.77;;;;;;;;;;5070943;28;20033;-85
2023/10/20 10:21:04;;;;;;;2.50;1.40;;;;;;;;;;5055175;28;20017;-85
2023/10/20 10:23:29;;;;;;;8.13;1.52;;;;;;;;;;5053570;28;20043;-84
2023/10/20 10:25:55;;;;;;;4.75;1.73;;;;;;;;;;5051677;28;20417;-85
2023/10/20 10:28:20;;;;;;;5.85;1.50;;;;;;;;;;5055645;28;20483;-85
2023/10/20 10:30:50;;;;;;;1.85;1.20;;;;;;;;;;5056347;28;20071;-85
2023/10/20 10:33:20;;;;;;;5.38;1.52;;;;;;;;;;5057074;28;20017;-85
2023/10/20 10:35:46;;;;;;;2.15;1.25;;;;;;;;;;5065390;28;20040;-85
2023/10/20 10:38:22;;;;;;;3.03;1.48;;;;;;;;;;5064061;28;20016;-84
2023/10/20 10:40:47;;;;;;;5.07;1.63;;;;;;;;;;5055205;28;20047;-85
2023/10/20 10:43:18;;;;;;;4.78;1.67;;;;;;;;;;5055133;28;20391;-84
2023/10/20 10:45:43;;;;;;;3.13;1.48;;;;;;;;;;5053699;28;20012;-85
2023/10/20 10:48:13;;;;;;;2.47;1.48;;;;;;;;;;5055659;28;20023;-84
2023/10/20 10:50:48;;;;;;;2.38;1.70;;;;;;;;;;5075743;28;20075;-84
2023/10/20 10:53:14;;;;;;;6.20;1.90;;;;;;;;;;5054359;28;20020;-84
2023/10/20 10:55:40;;;;;;;3.05;1.60;;;;;;;;;;5061565;28;20780;-85
2023/10/20 10:58:10;;;;;;;4.35;2.10;;;;;;;;;;5056553;28;20020;-84
2023/10/20 11:00:37;;;;;;;2.30;1.40;;;;;;;;;;5050701;28;20046;-84
2023/10/20 11:03:03;;;;;;;3.88;1.50;;;;;;;;;;5053134;28;20027;-85
2023/10/20 11:05:29;;;;;;;10.77;1.52;;;;;;;;;;5052672;28;20070;-84
2023/10/20 11:07:55;;;;;;;1.20;0.82;;;;;;;;;;5053609;28;20020;-84
2023/10/20 11:10:20;;;;;;;1.80;1.00;;;;;;;;;;5071602;28;20039;-83
2023/10/20 11:12:49;;;;;;;3.08;0.85;;;;;;;;;;5054000;28;20521;-83
2023/10/20 11:15:15;;;;;;;3.10;1.15;;;;;;;;;;5053825;28;20026;-83
2023/10/20 11:17:41;;;;;;;2.55;1.30;;;;;;;;;;5053808;28;20020;-82
2023/10/20 11:20:09;;;;;;;3.30;1.25;;;;;;;;;;5053669;28;20162;-83
2023/10/20 11:22:38;;;;;;;8.95;1.73;;;;;;;;;;5053804;28;20044;-84
2023/10/20 11:25:06;;;;;;;3.90;1.90;;;;;;;;;;5053760;28;20428;-84
2023/10/20 11:27:46;;;;;;;6.97;2.20;;;;;;;;;;5053404;28;20349;-83
2023/10/20 11:30:11;;;;;;;5.03;1.88;;;;;;;;;;5053806;28;20061;-83
2023/10/20 11:32:37;;;;;;;1.67;1.20;;;;;;;;;;5055766;28;20028;-83
2023/10/20 11:35:04;;;;;;;2.92;1.05;;;;;;;;;;5053603;28;20055;-84
2023/10/20 11:37:29;;;;;;;2.58;1.25;;;;;;;;;;5053631;28;20027;-84
2023/10/20 11:39:55;;;;;;;3.17;0.98;;;;;;;;;;5061063;28;20016;-84
2023/10/20 11:42:23;;;;;;;3.58;1.63;;;;;;;;;;5054668;28;20111;-84
2023/10/20 11:44:52;;;;;;;1.75;1.05;;;;;;;;;;5054754;28;20600;-84
2023/10/20 11:47:18;;;;;;;3.65;1.38;;;;;;;;;;5059269;28;20373;-84
2023/10/20 11:49:46;;;;;;;4.10;1.60;;;;;;;;;;5063098;28;20033;-84
2023/10/20 11:52:11;;;;;;;4.57;0.90;;;;;;;;;;5062352;28;20020;-84
2023/10/20 11:54:36;;;;;;;1.10;0.80;;;;;;;;;;5080647;28;20020;-83
2023/10/20 11:57:07;;;;;;;2.78;0.80;;;;;;;;;;5060366;28;20027;-83
2023/10/20 11:59:41;;;;;;;1.20;0.75;;;;;;;;;;5081306;28;20025;-84
2023/10/20 12:02:08;;;;;;;1.13;0.65;;;;;;;;;;5062033;28;20070;-89
2023/10/20 12:04:33;;;;;;;0.65;0.55;;;;;;;;;;5060338;28;20024;-90
2023/10/20 12:07:02;;;;;;;1.25;0.75;;;;;;;;;;5055518;28;20020;-90
2023/10/20 12:09:28;;;;;;;2.25;0.70;;;;;;;;;;5064154;28;20016;-90
2023/10/20 12:11:53;;;;;;;0.93;0.65;;;;;;;;;;5054598;28;20013;-89
2023/10/20 12:14:18;;;;;;;1.05;0.60;;;;;;;;;;5053874;28;20077;-90
2023/10/20 12:16:45;;;;;;;1.52;0.60;;;;;;;;;;5056782;28;20472;-90
2023/10/20 12:19:11;;;;;;;0.60;0.30;;;;;;;;;;5058404;28;20024;-89
2023/10/20 12:21:38;;;;;;;2.50;0.60;;;;;;;;;;5076186;28;20078;-89
2023/10/20 12:24:04;;;;;;;0.85;0.60;;;;;;;;;;5057862;28;20024;-89
2023/10/20 12:26:36;;;;;;;1.60;0.77;;;;;;;;;;5054872;28;20120;-89
2023/10/20 12:29:02;;;;;;;1.25;0.73;;;;;;;;;;5087409;28;20025;-89
2023/10/20 12:31:29;;;;;;;2.67;0.70;;;;;;;;;;5058021;28;20030;-89
2023/10/20 12:33:54;;;;;;;1.67;0.93;;;;;;;;;;5075620;28;20074;-89
2023/10/20 12:36:21;;;;;;;2.05;0.90;;;;;;;;;;5057405;28;20013;-89
2023/10/20 12:38:47;;;;;;;1.83;0.90;;;;;;;;;;5057602;28;20494;-89
2023/10/20 12:41:13;;;;;;;1.55;1.05;;;;;;;;;;5057752;28;20025;-89
2023/10/20 12:43:39;;;;;;;2.13;0.98;;;;;;;;;;5057878;28;20056;-89
2023/10/20 12:46:04;;;;;;;1.70;0.90;;;;;;;;;;5058432;28;20047;-89
2023/10/20 12:48:30;;;;;;;2.75;1.10;;;;;;;;;;5056444;28;20021;-88
2023/10/20 12:50:56;;;;;;;4.82;1.65;;;;;;;;;;5057936;28;20060;-89
2023/10/20 12:53:24;;;;;;;3.67;1.50;;;;;;;;;;5057525;28;20428;-89
2023/10/20 12:55:52;;;;;;;4.65;1.10;;;;;;;;;;5048307;28;20021;-89
2023/10/20 12:58:18;;;;;;;2.30;1.30;;;;;;;;;;5053929;28;20020;-88
2023/10/20 13:00:45;;;;;;;3.17;1.30;;;;;;;;;;5060477;28;20043;-88
2023/10/20 13:03:11;;;;;;;2.70;1.27;;;;;;;;;;5066052;28;20115;-84
2023/10/20 13:05:37;;;;;;;3.42;1.70;;;;;;;;;;5064501;28;20035;-83
2023/10/20 13:08:03;;;;;;;4.50;1.75;;;;;;;;;;5065585;28;20020;-83
2023/10/20 13:10:29;;;;;;;5.60;1.73;;;;;;;;;;5057963;28;20029;-83
2023/10/20 13:12:55;;;;;;;3.22;1.70;;;;;;;;;;5075375;28;20028;-83
2023/10/20 13:15:20;;;;;;;3.88;1.90;;;;;;;;;;5064849;28;20102;-89
2023/10/20 13:17:46;;;;;;;4.85;2.22;;;;;;;;;;5061344;28;20104;-82
2023/10/20 13:20:16;;;;;;;5.97;2.25;;;;;;;;;;5056535;28;20125;-81
2023/10/20 13:22:42;;;;;;;4.18;2.30;;;;;;;;;;5094435;28;20031;-83
2023/10/20 13:25:08;;;;;;;4.30;2.72;;;;;;;;;;5056951;28;20016;-84
2023/10/20 13:27:33;;;;;;;6.32;2.60;;;;;;;;;;5054995;28;20490;-83
2023/10/20 13:30:00;;;;;;;4.30;2.90;;;;;;;;;;5056535;28;20078;-84
2023/10/20 13:32:26;;;;;;;5.43;2.58;;;;;;;;;;5073643;28;20017;-83
2023/10/20 13:34:51;;;;;;;5.45;2.65;;;;;;;;;;5056535;28;20013;-83
2023/10/20 13:37:16;;;;;;;3.67;2.60;;;;;;;;;;5055745;28;20116;-84
2023/10/20 13:39:42;;;;;;;3.05;2.28;;;;;;;;;;5074023;28;20112;-84
2023/10/20 13:42:07;;;;;;;3.80;2.35;;;;;;;;;;5056055;28;20048;-83
2023/10/20 13:44:32;;;;;;;3.50;2.10;;;;;;;;;;5055878;28;20028;-83
2023/10/20 13:46:58;;;;;;;3.20;2.03;;;;;;;;;;5055596;28;20028;-83
2023/10/20 13:49:23;;;;;;;3.15;2.10;;;;;;;;;;5055237;28;20024;-84
2023/10/20 13:51:49;;;;;;;3.45;2.15;;;;;;;;;;5055349;28;20021;-84
2023/10/20 13:54:15;;;;;;;3.95;1.90;;;;;;;;;;5055413;28;20476;-84
2023/10/20 13:56:41;;;;;;;2.70;1.48;;;;;;;;;;5056195;28;20067;-84
2023/10/20 13:59:06;;;;;;;2.78;2.20;;;;;;;;;;5055450;28;20089;-83
2023/10/20 14:01:31;;;;;;;4.32;1.92;;;;;;;;;;5055000;28;20107;-83
2023/10/20 14:03:58;;;;;;;3.10;2.08;;;;;;;;;;5055710;28;20051;-84
2023/10/20 14:06:24;;;;;;;5.57;2.90;;;;;;;;;;5068007;28;20455;-84
2023/10/20 14:08:50;;;;;;;4.47;2.97;;;;;;;;;;5073627;28;20031;-84
2023/10/20 14:11:16;;;;;;;4.45;3.28;;;;;;;;;;5074740;28;20077;-84
2023/10/20 14:13:45;;;;;;;3.80;2.55;;;;;;;;;;5060308;28;20035;-83
2023/10/20 14:16:10;;;;;;;5.55;2.85;;;;;;;;;;5066754;28;20037;-83
2023/10/20 14:18:39;;;;;;;4.55;2.45;;;;;;;;;;5082672;28;20009;-89
2023/10/20 14:21:04;;;;;;;5.18;2.35;;;;;;;;;;5063492;28;20058;-83
2023/10/20 14:23:31;;;;;;;5.15;2.60;;;;;;;;;;5094755;28;20024;-84
2023/10/20 14:25:58;;;;;;;3.05;2.20;;;;;;;;;;5058120;28;20052;-83
2023/10/20 14:28:31;;;;;;;4.30;2.58;;;;;;;;;;5071751;28;20028;-84
2023/10/20 14:30:56;;;;;;;8.23;2.60;;;;;;;;;;5061304;28;20017;-84
2023/10/20 14:33:22;;;;;;;6.93;3.40;;;;;;;;;;5055481;28;20031;-83
2023/10/20 14:35:54;;;;;;;5.68;3.50;;;;;;;;;;5064003;28;20016;-83
2023/10/20 14:38:19;;;;;;;5.85;3.83;;;;;;;;;;5057088;28;20107;-83
2023/10/20 14:40:45;;;;;;;6.10;3.42;;;;;;;;;;5054599;28;20028;-83
2023/10/20 14:43:11;;;;;;;7.93;4.00;;;;;;;;;;5054708;28;20118;-83
2023/10/20 14:45:36;;;;;;;6.50;3.60;;;;;;;;;;5055799;28;20047;-83
2023/10/20 14:48:02;;;;;;;7.22;3.70;;;;;;;;;;5055581;28;20025;-83
2023/10/20 14:50:27;;;;;;;6.70;3.75;;;;;;;;;;5073736;28;20076;-83
2023/10/20 14:52:53;;;;;;;9.20;4.03;;;;;;;;;;5055343;28;20017;-83
2023/10/20 14:55:22;;;;;;;6.78;3.80;;;;;;;;;;5055235;28;20012;-84
2023/10/20 14:57:48;;;;;;;5.22;3.50;;;;;;;;;;5055372;28;20127;-84
2023/10/20 15:00:14;;;;;;;6.90;3.40;;;;;;;;;;5054983;28;20491;-83
2023/10/20 15:02:39;;;;;;;8.32;4.40;;;;;;;;;;5055080;28;20139;-83
2023/10/20 15:05:05;;;;;;;6.97;3.28;;;;;;;;;;5054840;28;20027;-83
2023/10/20 15:07:30;;;;;;;5.75;3.55;;;;;;;;;;5054404;28;20124;-83
2023/10/20 15:09:56;;;;;;;6.78;3.65;;;;;;;;;;5055025;28;20052;-83
2023/10/20 15:12:22;;;;;;;5.97;3.50;;;;;;;;;;5054812;28;20320;-83